sensor_id;sensor_type;location;lat;lon;timestamp;P1;durP1;ratioP1;P2;durP2;ratioP2
84388;SDS011;74589;48.846;2.382;2024-03-02T00:01:11;5.47;;;3.25;;
84388;SDS011;74589;48.846;2.382;2024-03-02T00:03:37;3.42;;;1.58;;
84388;SDS011;74589;48.846;2.382;2024-03-02T00:06:03;9.52;;;5.15;;
84388;SDS011;74589;48.846;2.382;2024-03-02T00:08:29;5.57;;;2.33;;
84388;SDS011;74589;48.846;2.382;2024-03-02T00:10:58;3.75;;;2.00;;
84388;SDS011;74589;48.846;2.382;2024-03-02T00:13:25;3.95;;;1.95;;
84388;SDS011;74589;48.846;2.382;2024-03-02T00:15:54;9.77;;;5.18;;
84388;SDS011;74589;48.846;2.382;2024-03-02T00:18:25;3.67;;;1.90;;
84388;SDS011;74589;48.846;2.382;2024-03-02T00:20:55;3.15;;;1.75;;
84388;SDS011;74589;48.846;2.382;2024-03-02T00:23:26;3.28;;;1.88;;
84388;SDS011;74589;48.846;2.382;2024-03-02T00:25:54;3.25;;;1.70;;
84388;SDS011;74589;48.846;2.382;2024-03-02T00:33:26;3.00;;;1.65;;
84388;SDS011;74589;48.846;2.382;2024-03-02T00:35:54;3.47;;;1.90;;
84388;SDS011;74589;48.846;2.382;2024-03-02T00:38:19;3.83;;;1.70;;
84388;SDS011;74589;48.846;2.382;2024-03-02T00:40:45;4.85;;;1.73;;
84388;SDS011;74589;48.846;2.382;2024-03-02T00:43:24;3.25;;;1.70;;
84388;SDS011;74589;48.846;2.382;2024-03-02T00:46:09;3.78;;;1.83;;
84388;SDS011;74589;48.846;2.382;2024-03-02T00:48:37;3.38;;;1.90;;
84388;SDS011;74589;48.846;2.382;2024-03-02T00:51:04;3.38;;;1.55;;
84388;SDS011;74589;48.846;2.382;2024-03-02T00:53:30;4.03;;;1.70;;
84388;SDS011;74589;48.846;2.382;2024-03-02T00:56:00;4.43;;;1.75;;
84388;SDS011;74589;48.846;2.382;2024-03-02T00:58:26;4.45;;;1.65;;
84388;SDS011;74589;48.846;2.382;2024-03-02T01:00:52;4.93;;;1.73;;
84388;SDS011;74589;48.846;2.382;2024-03-02T01:03:18;4.53;;;1.58;;
84388;SDS011;74589;48.846;2.382;2024-03-02T01:05:44;4.72;;;1.80;;
84388;SDS011;74589;48.846;2.382;2024-03-02T01:08:10;2.83;;;1.67;;
84388;SDS011;74589;48.846;2.382;2024-03-02T01:10:36;4.35;;;1.80;;
84388;SDS011;74589;48.846;2.382;2024-03-02T01:13:01;4.80;;;2.00;;
84388;SDS011;74589;48.846;2.382;2024-03-02T01:15:27;3.78;;;1.77;;
84388;SDS011;74589;48.846;2.382;2024-03-02T01:17:53;4.78;;;1.90;;
84388;SDS011;74589;48.846;2.382;2024-03-02T01:20:18;5.03;;;2.30;;
84388;SDS011;74589;48.846;2.382;2024-03-02T01:22:44;4.55;;;1.77;;
84388;SDS011;74589;48.846;2.382;2024-03-02T01:25:10;3.83;;;1.58;;
84388;SDS011;74589;48.846;2.382;2024-03-02T01:27:35;3.85;;;1.70;;
84388;SDS011;74589;48.846;2.382;2024-03-02T01:30:01;4.85;;;1.90;;
84388;SDS011;74589;48.846;2.382;2024-03-02T01:32:26;4.90;;;1.80;;
84388;SDS011;74589;48.846;2.382;2024-03-02T01:34:52;6.05;;;1.83;;
84388;SDS011;74589;48.846;2.382;2024-03-02T01:37:18;3.58;;;1.75;;
84388;SDS011;74589;48.846;2.382;2024-03-02T01:39:43;5.65;;;1.70;;
84388;SDS011;74589;48.846;2.382;2024-03-02T01:42:09;4.70;;;1.80;;
84388;SDS011;74589;48.846;2.382;2024-03-02T01:44:35;3.22;;;1.77;;
84388;SDS011;74589;48.846;2.382;2024-03-02T01:47:01;4.25;;;1.95;;
84388;SDS011;74589;48.846;2.382;2024-03-02T01:49:27;4.15;;;2.13;;
84388;SDS011;74589;48.846;2.382;2024-03-02T01:51:53;3.22;;;2.03;;
84388;SDS011;74589;48.846;2.382;2024-03-02T01:54:18;4.28;;;1.75;;
84388;SDS011;74589;48.846;2.382;2024-03-02T01:56:44;3.42;;;1.90;;
84388;SDS011;74589;48.846;2.382;2024-03-02T01:59:10;2.55;;;1.60;;
84388;SDS011;74589;48.846;2.382;2024-03-02T02:01:38;4.18;;;1.98;;
84388;SDS011;74589;48.846;2.382;2024-03-02T02:04:03;4.32;;;1.95;;
84388;SDS011;74589;48.846;2.382;2024-03-02T02:06:31;4.70;;;1.90;;
84388;SDS011;74589;48.846;2.382;2024-03-02T02:08:57;3.65;;;1.55;;
84388;SDS011;74589;48.846;2.382;2024-03-02T02:11:22;3.85;;;1.80;;
84388;SDS011;74589;48.846;2.382;2024-03-02T02:13:49;4.78;;;1.80;;
84388;SDS011;74589;48.846;2.382;2024-03-02T02:16:14;4.50;;;1.80;;
84388;SDS011;74589;48.846;2.382;2024-03-02T02:18:40;6.43;;;1.50;;
84388;SDS011;74589;48.846;2.382;2024-03-02T02:21:06;2.95;;;1.83;;
84388;SDS011;74589;48.846;2.382;2024-03-02T02:23:32;5.38;;;1.98;;
84388;SDS011;74589;48.846;2.382;2024-03-02T02:25:57;4.53;;;1.90;;
84388;SDS011;74589;48.846;2.382;2024-03-02T02:28:23;3.75;;;1.70;;
84388;SDS011;74589;48.846;2.382;2024-03-02T02:30:48;5.05;;;2.00;;
84388;SDS011;74589;48.846;2.382;2024-03-02T02:33:14;4.75;;;1.90;;
84388;SDS011;74589;48.846;2.382;2024-03-02T02:35:40;4.97;;;2.20;;
84388;SDS011;74589;48.846;2.382;2024-03-02T02:38:05;6.68;;;2.10;;
84388;SDS011;74589;48.846;2.382;2024-03-02T02:40:31;5.22;;;2.20;;
84388;SDS011;74589;48.846;2.382;2024-03-02T02:42:57;6.82;;;2.17;;
84388;SDS011;74589;48.846;2.382;2024-03-02T02:45:24;5.18;;;2.35;;
84388;SDS011;74589;48.846;2.382;2024-03-02T02:47:50;4.45;;;2.30;;
84388;SDS011;74589;48.846;2.382;2024-03-02T02:50:15;7.38;;;2.83;;
84388;SDS011;74589;48.846;2.382;2024-03-02T02:52:41;3.60;;;2.25;;
84388;SDS011;74589;48.846;2.382;2024-03-02T02:55:08;7.32;;;2.20;;
84388;SDS011;74589;48.846;2.382;2024-03-02T02:57:35;7.03;;;2.50;;
84388;SDS011;74589;48.846;2.382;2024-03-02T03:00:07;6.68;;;2.45;;
84388;SDS011;74589;48.846;2.382;2024-03-02T03:02:41;6.07;;;3.20;;
84388;SDS011;74589;48.846;2.382;2024-03-02T03:05:07;7.68;;;3.10;;
84388;SDS011;74589;48.846;2.382;2024-03-02T03:07:39;4.25;;;2.15;;
84388;SDS011;74589;48.846;2.382;2024-03-02T03:10:05;6.80;;;2.38;;
84388;SDS011;74589;48.846;2.382;2024-03-02T03:12:32;6.00;;;1.90;;
84388;SDS011;74589;48.846;2.382;2024-03-02T03:14:58;4.72;;;1.83;;
84388;SDS011;74589;48.846;2.382;2024-03-02T03:17:24;5.53;;;1.70;;
84388;SDS011;74589;48.846;2.382;2024-03-02T03:19:50;6.40;;;1.98;;
84388;SDS011;74589;48.846;2.382;2024-03-02T03:22:16;5.15;;;1.75;;
84388;SDS011;74589;48.846;2.382;2024-03-02T03:24:42;5.30;;;1.90;;
84388;SDS011;74589;48.846;2.382;2024-03-02T03:27:08;4.78;;;1.98;;
84388;SDS011;74589;48.846;2.382;2024-03-02T03:29:35;3.25;;;1.50;;
84388;SDS011;74589;48.846;2.382;2024-03-02T03:32:01;4.28;;;1.60;;
84388;SDS011;74589;48.846;2.382;2024-03-02T03:34:28;3.28;;;1.50;;
84388;SDS011;74589;48.846;2.382;2024-03-02T03:36:54;6.45;;;1.80;;
84388;SDS011;74589;48.846;2.382;2024-03-02T03:39:19;4.20;;;1.67;;
84388;SDS011;74589;48.846;2.382;2024-03-02T03:41:45;3.03;;;1.52;;
84388;SDS011;74589;48.846;2.382;2024-03-02T03:44:11;6.28;;;1.92;;
84388;SDS011;74589;48.846;2.382;2024-03-02T03:46:37;4.65;;;2.30;;
84388;SDS011;74589;48.846;2.382;2024-03-02T03:49:03;4.60;;;1.77;;
84388;SDS011;74589;48.846;2.382;2024-03-02T03:51:28;3.60;;;1.80;;
84388;SDS011;74589;48.846;2.382;2024-03-02T03:53:55;5.20;;;2.20;;
84388;SDS011;74589;48.846;2.382;2024-03-02T03:56:21;4.00;;;1.75;;
84388;SDS011;74589;48.846;2.382;2024-03-02T03:58:46;6.63;;;2.35;;
84388;SDS011;74589;48.846;2.382;2024-03-02T04:01:12;4.47;;;2.05;;
84388;SDS011;74589;48.846;2.382;2024-03-02T04:03:38;6.10;;;2.60;;
84388;SDS011;74589;48.846;2.382;2024-03-02T04:06:03;7.50;;;2.80;;
84388;SDS011;74589;48.846;2.382;2024-03-02T04:08:29;5.10;;;2.00;;
84388;SDS011;74589;48.846;2.382;2024-03-02T04:10:55;6.82;;;2.38;;
84388;SDS011;74589;48.846;2.382;2024-03-02T04:13:21;4.90;;;2.30;;
84388;SDS011;74589;48.846;2.382;2024-03-02T04:15:46;5.18;;;2.40;;
84388;SDS011;74589;48.846;2.382;2024-03-02T04:18:12;4.93;;;2.78;;
84388;SDS011;74589;48.846;2.382;2024-03-02T04:20:37;5.28;;;2.92;;
84388;SDS011;74589;48.846;2.382;2024-03-02T04:23:03;5.95;;;3.00;;
84388;SDS011;74589;48.846;2.382;2024-03-02T04:25:29;5.55;;;3.00;;
84388;SDS011;74589;48.846;2.382;2024-03-02T04:27:54;5.38;;;2.83;;
84388;SDS011;74589;48.846;2.382;2024-03-02T04:30:20;6.97;;;2.10;;
84388;SDS011;74589;48.846;2.382;2024-03-02T04:32:46;7.03;;;1.98;;
84388;SDS011;74589;48.846;2.382;2024-03-02T04:35:12;6.47;;;2.38;;
84388;SDS011;74589;48.846;2.382;2024-03-02T04:37:38;4.80;;;2.15;;
84388;SDS011;74589;48.846;2.382;2024-03-02T04:40:04;4.88;;;2.10;;
84388;SDS011;74589;48.846;2.382;2024-03-02T04:42:33;6.05;;;2.45;;
84388;SDS011;74589;48.846;2.382;2024-03-02T04:44:59;5.55;;;2.50;;
84388;SDS011;74589;48.846;2.382;2024-03-02T04:47:25;5.75;;;2.28;;
84388;SDS011;74589;48.846;2.382;2024-03-02T04:49:51;4.82;;;2.38;;
84388;SDS011;74589;48.846;2.382;2024-03-02T04:52:16;5.05;;;2.35;;
84388;SDS011;74589;48.846;2.382;2024-03-02T04:54:42;8.15;;;2.60;;
84388;SDS011;74589;48.846;2.382;2024-03-02T04:57:26;4.10;;;2.00;;
84388;SDS011;74589;48.846;2.382;2024-03-02T04:59:52;7.20;;;2.97;;
84388;SDS011;74589;48.846;2.382;2024-03-02T05:02:18;7.63;;;2.80;;
84388;SDS011;74589;48.846;2.382;2024-03-02T05:04:43;6.07;;;2.60;;
84388;SDS011;74589;48.846;2.382;2024-03-02T05:07:09;7.97;;;3.00;;
84388;SDS011;74589;48.846;2.382;2024-03-02T05:09:35;5.72;;;2.60;;
84388;SDS011;74589;48.846;2.382;2024-03-02T05:12:01;6.03;;;2.47;;
84388;SDS011;74589;48.846;2.382;2024-03-02T05:14:36;7.05;;;2.63;;
84388;SDS011;74589;48.846;2.382;2024-03-02T05:17:02;6.95;;;2.80;;
84388;SDS011;74589;48.846;2.382;2024-03-02T05:19:27;6.65;;;2.65;;
84388;SDS011;74589;48.846;2.382;2024-03-02T05:21:53;7.07;;;2.85;;
84388;SDS011;74589;48.846;2.382;2024-03-02T05:24:19;8.15;;;2.67;;
84388;SDS011;74589;48.846;2.382;2024-03-02T05:26:44;4.45;;;2.30;;
84388;SDS011;74589;48.846;2.382;2024-03-02T05:29:10;6.15;;;2.22;;
84388;SDS011;74589;48.846;2.382;2024-03-02T05:31:35;5.28;;;2.00;;
84388;SDS011;74589;48.846;2.382;2024-03-02T05:34:01;5.65;;;1.92;;
84388;SDS011;74589;48.846;2.382;2024-03-02T05:36:27;4.07;;;2.20;;
84388;SDS011;74589;48.846;2.382;2024-03-02T05:38:53;4.75;;;1.90;;
84388;SDS011;74589;48.846;2.382;2024-03-02T05:41:18;5.22;;;1.88;;
84388;SDS011;74589;48.846;2.382;2024-03-02T05:43:44;8.13;;;1.85;;
84388;SDS011;74589;48.846;2.382;2024-03-02T05:46:10;6.70;;;2.30;;
84388;SDS011;74589;48.846;2.382;2024-03-02T05:48:35;4.97;;;1.70;;
84388;SDS011;74589;48.846;2.382;2024-03-02T05:51:01;4.63;;;1.90;;
84388;SDS011;74589;48.846;2.382;2024-03-02T05:53:27;3.80;;;1.65;;
84388;SDS011;74589;48.846;2.382;2024-03-02T05:55:52;6.63;;;2.00;;
84388;SDS011;74589;48.846;2.382;2024-03-02T05:58:20;7.85;;;1.98;;
84388;SDS011;74589;48.846;2.382;2024-03-02T06:01:03;4.22;;;1.60;;
84388;SDS011;74589;48.846;2.382;2024-03-02T06:03:29;6.18;;;1.80;;
84388;SDS011;74589;48.846;2.382;2024-03-02T06:05:55;6.22;;;2.10;;
84388;SDS011;74589;48.846;2.382;2024-03-02T06:08:21;6.88;;;1.90;;
84388;SDS011;74589;48.846;2.382;2024-03-02T06:10:46;6.95;;;2.22;;
84388;SDS011;74589;48.846;2.382;2024-03-02T06:13:12;6.93;;;2.22;;
84388;SDS011;74589;48.846;2.382;2024-03-02T06:15:37;5.38;;;2.05;;
84388;SDS011;74589;48.846;2.382;2024-03-02T06:18:03;5.75;;;2.13;;
84388;SDS011;74589;48.846;2.382;2024-03-02T06:20:29;5.75;;;2.17;;
84388;SDS011;74589;48.846;2.382;2024-03-02T06:22:57;6.40;;;2.20;;
84388;SDS011;74589;48.846;2.382;2024-03-02T06:25:23;5.65;;;2.28;;
84388;SDS011;74589;48.846;2.382;2024-03-02T06:27:48;8.80;;;2.13;;
84388;SDS011;74589;48.846;2.382;2024-03-02T06:30:14;5.50;;;2.20;;
84388;SDS011;74589;48.846;2.382;2024-03-02T06:32:40;3.83;;;1.70;;
84388;SDS011;74589;48.846;2.382;2024-03-02T06:35:05;4.45;;;1.90;;
84388;SDS011;74589;48.846;2.382;2024-03-02T06:37:35;3.42;;;1.65;;
84388;SDS011;74589;48.846;2.382;2024-03-02T06:40:05;5.18;;;2.00;;
84388;SDS011;74589;48.846;2.382;2024-03-02T06:42:32;6.47;;;2.00;;
84388;SDS011;74589;48.846;2.382;2024-03-02T06:44:59;5.85;;;1.90;;
84388;SDS011;74589;48.846;2.382;2024-03-02T06:47:24;4.30;;;1.83;;
84388;SDS011;74589;48.846;2.382;2024-03-02T06:49:50;5.38;;;1.55;;
84388;SDS011;74589;48.846;2.382;2024-03-02T06:52:16;6.82;;;1.95;;
84388;SDS011;74589;48.846;2.382;2024-03-02T06:54:42;5.85;;;1.90;;
84388;SDS011;74589;48.846;2.382;2024-03-02T06:57:07;5.10;;;2.15;;
84388;SDS011;74589;48.846;2.382;2024-03-02T06:59:33;6.32;;;1.85;;
84388;SDS011;74589;48.846;2.382;2024-03-02T07:01:59;6.80;;;1.98;;
84388;SDS011;74589;48.846;2.382;2024-03-02T07:04:24;6.60;;;2.00;;
84388;SDS011;74589;48.846;2.382;2024-03-02T07:06:50;4.75;;;1.85;;
84388;SDS011;74589;48.846;2.382;2024-03-02T07:09:16;6.32;;;2.13;;
84388;SDS011;74589;48.846;2.382;2024-03-02T07:11:42;6.93;;;1.88;;
84388;SDS011;74589;48.846;2.382;2024-03-02T07:14:08;7.43;;;1.83;;
84388;SDS011;74589;48.846;2.382;2024-03-02T07:16:34;6.18;;;2.10;;
84388;SDS011;74589;48.846;2.382;2024-03-02T07:19:03;6.53;;;2.03;;
84388;SDS011;74589;48.846;2.382;2024-03-02T07:21:29;5.20;;;1.95;;
84388;SDS011;74589;48.846;2.382;2024-03-02T07:23:54;7.25;;;2.05;;
84388;SDS011;74589;48.846;2.382;2024-03-02T07:26:20;6.18;;;2.10;;
84388;SDS011;74589;48.846;2.382;2024-03-02T07:28:46;6.03;;;2.08;;
84388;SDS011;74589;48.846;2.382;2024-03-02T07:31:13;6.32;;;2.00;;
84388;SDS011;74589;48.846;2.382;2024-03-02T07:33:38;5.40;;;2.10;;
84388;SDS011;74589;48.846;2.382;2024-03-02T07:36:04;5.40;;;2.28;;
84388;SDS011;74589;48.846;2.382;2024-03-02T07:38:30;6.82;;;2.15;;
84388;SDS011;74589;48.846;2.382;2024-03-02T07:40:57;4.65;;;1.95;;
84388;SDS011;74589;48.846;2.382;2024-03-02T07:43:23;6.22;;;2.08;;
84388;SDS011;74589;48.846;2.382;2024-03-02T07:45:48;5.72;;;2.05;;
84388;SDS011;74589;48.846;2.382;2024-03-02T07:48:14;7.53;;;2.72;;
84388;SDS011;74589;48.846;2.382;2024-03-02T07:50:40;5.82;;;2.42;;
84388;SDS011;74589;48.846;2.382;2024-03-02T07:53:06;5.72;;;2.20;;
84388;SDS011;74589;48.846;2.382;2024-03-02T07:55:35;5.90;;;2.78;;
84388;SDS011;74589;48.846;2.382;2024-03-02T07:58:01;5.70;;;2.60;;
84388;SDS011;74589;48.846;2.382;2024-03-02T08:00:26;7.50;;;2.38;;
84388;SDS011;74589;48.846;2.382;2024-03-02T08:02:53;5.78;;;2.40;;
84388;SDS011;74589;48.846;2.382;2024-03-02T08:05:19;5.82;;;2.60;;
84388;SDS011;74589;48.846;2.382;2024-03-02T08:07:45;6.40;;;2.70;;
84388;SDS011;74589;48.846;2.382;2024-03-02T08:10:11;7.20;;;2.85;;
84388;SDS011;74589;48.846;2.382;2024-03-02T08:12:37;9.68;;;3.40;;
84388;SDS011;74589;48.846;2.382;2024-03-02T08:15:03;9.23;;;3.60;;
84388;SDS011;74589;48.846;2.382;2024-03-02T08:17:29;7.43;;;2.80;;
84388;SDS011;74589;48.846;2.382;2024-03-02T08:19:55;7.28;;;2.60;;
84388;SDS011;74589;48.846;2.382;2024-03-02T08:22:21;6.03;;;2.95;;
84388;SDS011;74589;48.846;2.382;2024-03-02T08:24:48;7.72;;;3.15;;
84388;SDS011;74589;48.846;2.382;2024-03-02T08:27:13;8.90;;;4.10;;
84388;SDS011;74589;48.846;2.382;2024-03-02T08:29:40;5.70;;;2.95;;
84388;SDS011;74589;48.846;2.382;2024-03-02T08:32:06;7.47;;;3.45;;
84388;SDS011;74589;48.846;2.382;2024-03-02T08:34:32;7.65;;;3.17;;
84388;SDS011;74589;48.846;2.382;2024-03-02T08:36:58;5.78;;;2.95;;
84388;SDS011;74589;48.846;2.382;2024-03-02T08:39:24;6.07;;;2.65;;
84388;SDS011;74589;48.846;2.382;2024-03-02T08:41:50;7.78;;;3.10;;
84388;SDS011;74589;48.846;2.382;2024-03-02T08:44:16;4.60;;;2.67;;
84388;SDS011;74589;48.846;2.382;2024-03-02T08:46:42;5.68;;;3.20;;
84388;SDS011;74589;48.846;2.382;2024-03-02T08:49:08;5.57;;;2.40;;
84388;SDS011;74589;48.846;2.382;2024-03-02T08:51:34;6.45;;;2.15;;
84388;SDS011;74589;48.846;2.382;2024-03-02T08:54:00;4.65;;;1.90;;
84388;SDS011;74589;48.846;2.382;2024-03-02T08:56:25;4.30;;;1.90;;
84388;SDS011;74589;48.846;2.382;2024-03-02T08:58:51;4.13;;;1.85;;
84388;SDS011;74589;48.846;2.382;2024-03-02T09:01:17;4.50;;;1.55;;
84388;SDS011;74589;48.846;2.382;2024-03-02T09:03:44;4.40;;;1.92;;
84388;SDS011;74589;48.846;2.382;2024-03-02T09:06:10;4.22;;;2.05;;
84388;SDS011;74589;48.846;2.382;2024-03-02T09:08:37;3.53;;;1.85;;
84388;SDS011;74589;48.846;2.382;2024-03-02T09:11:04;3.95;;;1.60;;
84388;SDS011;74589;48.846;2.382;2024-03-02T09:13:31;4.43;;;1.83;;
84388;SDS011;74589;48.846;2.382;2024-03-02T09:15:57;4.60;;;1.90;;
84388;SDS011;74589;48.846;2.382;2024-03-02T09:18:22;3.45;;;1.70;;
84388;SDS011;74589;48.846;2.382;2024-03-02T09:20:48;4.85;;;1.80;;
84388;SDS011;74589;48.846;2.382;2024-03-02T09:23:14;4.30;;;1.92;;
84388;SDS011;74589;48.846;2.382;2024-03-02T09:25:39;4.40;;;1.98;;
84388;SDS011;74589;48.846;2.382;2024-03-02T09:28:05;5.57;;;3.45;;
84388;SDS011;74589;48.846;2.382;2024-03-02T09:30:32;3.83;;;2.00;;
84388;SDS011;74589;48.846;2.382;2024-03-02T09:32:58;3.28;;;1.65;;
84388;SDS011;74589;48.846;2.382;2024-03-02T09:35:24;3.75;;;2.13;;
84388;SDS011;74589;48.846;2.382;2024-03-02T09:37:49;4.78;;;1.98;;
84388;SDS011;74589;48.846;2.382;2024-03-02T09:40:15;4.95;;;2.00;;
84388;SDS011;74589;48.846;2.382;2024-03-02T09:42:41;3.75;;;2.00;;
84388;SDS011;74589;48.846;2.382;2024-03-02T09:45:08;3.35;;;2.20;;
84388;SDS011;74589;48.846;2.382;2024-03-02T09:47:34;6.68;;;2.70;;
84388;SDS011;74589;48.846;2.382;2024-03-02T09:50:00;7.43;;;2.50;;
84388;SDS011;74589;48.846;2.382;2024-03-02T09:52:26;4.85;;;2.30;;
84388;SDS011;74589;48.846;2.382;2024-03-02T09:54:52;3.97;;;2.40;;
84388;SDS011;74589;48.846;2.382;2024-03-02T09:57:17;4.63;;;2.03;;
84388;SDS011;74589;48.846;2.382;2024-03-02T09:59:43;5.30;;;2.30;;
84388;SDS011;74589;48.846;2.382;2024-03-02T10:02:10;4.75;;;2.40;;
84388;SDS011;74589;48.846;2.382;2024-03-02T10:04:36;4.05;;;2.10;;
84388;SDS011;74589;48.846;2.382;2024-03-02T10:09:49;4.93;;;3.08;;
84388;SDS011;74589;48.846;2.382;2024-03-02T10:12:15;4.75;;;3.47;;
84388;SDS011;74589;48.846;2.382;2024-03-02T10:14:42;6.22;;;3.63;;
84388;SDS011;74589;48.846;2.382;2024-03-02T10:17:11;5.32;;;3.25;;
84388;SDS011;74589;48.846;2.382;2024-03-02T10:19:38;5.40;;;2.72;;
84388;SDS011;74589;48.846;2.382;2024-03-02T10:22:05;5.32;;;2.85;;
84388;SDS011;74589;48.846;2.382;2024-03-02T10:24:38;5.07;;;2.70;;
84388;SDS011;74589;48.846;2.382;2024-03-02T10:27:08;5.82;;;3.22;;
84388;SDS011;74589;48.846;2.382;2024-03-02T10:29:47;4.55;;;2.53;;
84388;SDS011;74589;48.846;2.382;2024-03-02T10:32:14;5.53;;;2.63;;
84388;SDS011;74589;48.846;2.382;2024-03-02T10:34:41;5.85;;;2.45;;
84388;SDS011;74589;48.846;2.382;2024-03-02T10:37:07;6.32;;;2.78;;
84388;SDS011;74589;48.846;2.382;2024-03-02T10:39:36;5.47;;;3.17;;
84388;SDS011;74589;48.846;2.382;2024-03-02T10:42:04;6.05;;;2.63;;
84388;SDS011;74589;48.846;2.382;2024-03-02T10:44:31;5.53;;;3.00;;
84388;SDS011;74589;48.846;2.382;2024-03-02T10:47:01;4.90;;;2.47;;
84388;SDS011;74589;48.846;2.382;2024-03-02T10:49:29;5.72;;;3.05;;
84388;SDS011;74589;48.846;2.382;2024-03-02T10:51:56;7.07;;;3.50;;
84388;SDS011;74589;48.846;2.382;2024-03-02T10:54:25;4.68;;;3.10;;
84388;SDS011;74589;48.846;2.382;2024-03-02T10:57:01;6.18;;;2.70;;
84388;SDS011;74589;48.846;2.382;2024-03-02T11:02:10;6.47;;;2.70;;
84388;SDS011;74589;48.846;2.382;2024-03-02T11:04:37;5.30;;;2.47;;
84388;SDS011;74589;48.846;2.382;2024-03-02T11:07:05;2.92;;;1.90;;
84388;SDS011;74589;48.846;2.382;2024-03-02T11:09:33;2.63;;;1.50;;
84388;SDS011;74589;48.846;2.382;2024-03-02T11:12:06;2.88;;;1.60;;
84388;SDS011;74589;48.846;2.382;2024-03-02T11:14:41;2.17;;;1.50;;
84388;SDS011;74589;48.846;2.382;2024-03-02T11:17:10;2.38;;;1.50;;
84388;SDS011;74589;48.846;2.382;2024-03-02T11:19:38;2.10;;;1.50;;
84388;SDS011;74589;48.846;2.382;2024-03-02T11:22:05;2.17;;;1.40;;
84388;SDS011;74589;48.846;2.382;2024-03-02T11:24:31;2.55;;;1.30;;
84388;SDS011;74589;48.846;2.382;2024-03-02T11:26:58;2.03;;;1.10;;
84388;SDS011;74589;48.846;2.382;2024-03-02T11:32:14;1.83;;;1.00;;
84388;SDS011;74589;48.846;2.382;2024-03-02T11:34:41;1.48;;;1.10;;
84388;SDS011;74589;48.846;2.382;2024-03-02T11:37:12;1.83;;;1.00;;
84388;SDS011;74589;48.846;2.382;2024-03-02T11:39:39;1.67;;;1.02;;
84388;SDS011;74589;48.846;2.382;2024-03-02T11:42:08;1.65;;;1.02;;
84388;SDS011;74589;48.846;2.382;2024-03-02T11:44:34;1.88;;;1.15;;
84388;SDS011;74589;48.846;2.382;2024-03-02T11:47:02;3.90;;;2.30;;
84388;SDS011;74589;48.846;2.382;2024-03-02T11:49:38;1.55;;;1.00;;
84388;SDS011;74589;48.846;2.382;2024-03-02T11:52:08;1.48;;;0.98;;
84388;SDS011;74589;48.846;2.382;2024-03-02T11:54:39;1.60;;;0.90;;
84388;SDS011;74589;48.846;2.382;2024-03-02T11:57:11;2.47;;;2.22;;
84388;SDS011;74589;48.846;2.382;2024-03-02T11:59:39;3.38;;;2.28;;
84388;SDS011;74589;48.846;2.382;2024-03-02T12:02:05;2.65;;;1.90;;
84388;SDS011;74589;48.846;2.382;2024-03-02T12:04:31;3.95;;;2.95;;
84388;SDS011;74589;48.846;2.382;2024-03-02T12:06:58;2.20;;;2.00;;
84388;SDS011;74589;48.846;2.382;2024-03-02T12:09:25;2.25;;;1.10;;
84388;SDS011;74589;48.846;2.382;2024-03-02T12:12:08;1.48;;;1.17;;
84388;SDS011;74589;48.846;2.382;2024-03-02T12:14:37;1.17;;;0.90;;
84388;SDS011;74589;48.846;2.382;2024-03-02T12:17:06;1.58;;;1.00;;
84388;SDS011;74589;48.846;2.382;2024-03-02T12:19:32;1.67;;;1.20;;
84388;SDS011;74589;48.846;2.382;2024-03-02T12:21:59;1.35;;;0.90;;
84388;SDS011;74589;48.846;2.382;2024-03-02T12:24:27;1.75;;;1.00;;
84388;SDS011;74589;48.846;2.382;2024-03-02T12:26:53;2.13;;;1.00;;
84388;SDS011;74589;48.846;2.382;2024-03-02T12:29:20;1.23;;;1.05;;
84388;SDS011;74589;48.846;2.382;2024-03-02T12:31:49;1.83;;;1.38;;
84388;SDS011;74589;48.846;2.382;2024-03-02T12:34:17;1.48;;;1.10;;
84388;SDS011;74589;48.846;2.382;2024-03-02T12:36:44;1.95;;;1.27;;
84388;SDS011;74589;48.846;2.382;2024-03-02T12:39:15;1.75;;;1.10;;
84388;SDS011;74589;48.846;2.382;2024-03-02T12:41:41;1.25;;;1.00;;
84388;SDS011;74589;48.846;2.382;2024-03-02T12:44:07;1.10;;;1.00;;
84388;SDS011;74589;48.846;2.382;2024-03-02T12:46:33;1.50;;;1.30;;
84388;SDS011;74589;48.846;2.382;2024-03-02T12:49:10;1.13;;;0.90;;
84388;SDS011;74589;48.846;2.382;2024-03-02T12:51:38;1.40;;;1.10;;
84388;SDS011;74589;48.846;2.382;2024-03-02T12:54:08;1.30;;;1.20;;
84388;SDS011;74589;48.846;2.382;2024-03-02T12:56:36;1.48;;;1.27;;
84388;SDS011;74589;48.846;2.382;2024-03-02T12:59:03;2.03;;;1.40;;
84388;SDS011;74589;48.846;2.382;2024-03-02T13:01:29;11.52;;;8.40;;
84388;SDS011;74589;48.846;2.382;2024-03-02T13:03:57;19.98;;;15.43;;
84388;SDS011;74589;48.846;2.382;2024-03-02T13:06:24;10.07;;;7.50;;
84388;SDS011;74589;48.846;2.382;2024-03-02T13:08:53;5.18;;;4.07;;
84388;SDS011;74589;48.846;2.382;2024-03-02T13:11:18;2.25;;;1.83;;
84388;SDS011;74589;48.846;2.382;2024-03-02T13:13:45;2.40;;;1.30;;
84388;SDS011;74589;48.846;2.382;2024-03-02T13:16:12;1.33;;;1.15;;
84388;SDS011;74589;48.846;2.382;2024-03-02T13:18:40;1.50;;;1.30;;
84388;SDS011;74589;48.846;2.382;2024-03-02T13:21:07;2.47;;;1.50;;
84388;SDS011;74589;48.846;2.382;2024-03-02T13:23:33;1.60;;;1.27;;
84388;SDS011;74589;48.846;2.382;2024-03-02T13:25:59;1.23;;;1.10;;
84388;SDS011;74589;48.846;2.382;2024-03-02T13:28:25;1.70;;;1.20;;
84388;SDS011;74589;48.846;2.382;2024-03-02T13:30:50;2.10;;;1.40;;
84388;SDS011;74589;48.846;2.382;2024-03-02T13:33:16;2.53;;;1.30;;
84388;SDS011;74589;48.846;2.382;2024-03-02T13:35:47;2.08;;;1.30;;
84388;SDS011;74589;48.846;2.382;2024-03-02T13:38:19;2.30;;;1.30;;
84388;SDS011;74589;48.846;2.382;2024-03-02T13:40:45;2.58;;;1.70;;
84388;SDS011;74589;48.846;2.382;2024-03-02T13:43:13;2.20;;;1.70;;
84388;SDS011;74589;48.846;2.382;2024-03-02T13:45:39;2.22;;;1.85;;
84388;SDS011;74589;48.846;2.382;2024-03-02T13:48:05;2.40;;;1.50;;
84388;SDS011;74589;48.846;2.382;2024-03-02T13:50:31;2.40;;;1.50;;
84388;SDS011;74589;48.846;2.382;2024-03-02T13:52:57;1.45;;;1.30;;
84388;SDS011;74589;48.846;2.382;2024-03-02T13:55:23;1.88;;;1.60;;
84388;SDS011;74589;48.846;2.382;2024-03-02T13:57:48;3.03;;;2.00;;
84388;SDS011;74589;48.846;2.382;2024-03-02T14:00:15;2.42;;;2.15;;
84388;SDS011;74589;48.846;2.382;2024-03-02T14:02:42;3.17;;;2.50;;
84388;SDS011;74589;48.846;2.382;2024-03-02T14:05:08;2.28;;;2.00;;
84388;SDS011;74589;48.846;2.382;2024-03-02T14:07:38;2.00;;;1.80;;
84388;SDS011;74589;48.846;2.382;2024-03-02T14:10:04;2.58;;;1.90;;
84388;SDS011;74589;48.846;2.382;2024-03-02T14:12:30;3.33;;;2.20;;
84388;SDS011;74589;48.846;2.382;2024-03-02T14:14:56;2.47;;;1.90;;
84388;SDS011;74589;48.846;2.382;2024-03-02T14:17:24;2.15;;;1.90;;
84388;SDS011;74589;48.846;2.382;2024-03-02T14:19:50;4.05;;;2.20;;
84388;SDS011;74589;48.846;2.382;2024-03-02T14:22:16;3.10;;;2.28;;
84388;SDS011;74589;48.846;2.382;2024-03-02T14:24:42;3.75;;;3.35;;
84388;SDS011;74589;48.846;2.382;2024-03-02T14:27:08;15.95;;;10.77;;
84388;SDS011;74589;48.846;2.382;2024-03-02T14:29:34;20.20;;;13.73;;
84388;SDS011;74589;48.846;2.382;2024-03-02T14:32:02;4.30;;;3.47;;
84388;SDS011;74589;48.846;2.382;2024-03-02T14:34:28;8.32;;;6.68;;
84388;SDS011;74589;48.846;2.382;2024-03-02T14:36:54;10.73;;;7.45;;
84388;SDS011;74589;48.846;2.382;2024-03-02T14:39:20;6.30;;;5.03;;
84388;SDS011;74589;48.846;2.382;2024-03-02T14:41:46;1.60;;;1.50;;
84388;SDS011;74589;48.846;2.382;2024-03-02T14:44:12;1.52;;;1.42;;
84388;SDS011;74589;48.846;2.382;2024-03-02T14:46:37;2.05;;;1.80;;
84388;SDS011;74589;48.846;2.382;2024-03-02T14:49:03;2.15;;;1.73;;
84388;SDS011;74589;48.846;2.382;2024-03-02T14:51:29;2.38;;;1.70;;
84388;SDS011;74589;48.846;2.382;2024-03-02T14:53:55;1.50;;;1.40;;
84388;SDS011;74589;48.846;2.382;2024-03-02T14:56:21;1.40;;;1.30;;
84388;SDS011;74589;48.846;2.382;2024-03-02T14:58:46;1.60;;;1.50;;